Impacts METAR Board INFO
IDs:

KDFW - Dallas-Ft Worth Intl, TX, US

Updated at: 0947 UTC 20 Nov 2017
Potential Impact None Slight Moderate High
Time19/21Z 19/22Z 19/23Z 20/00Z 20/01Z 20/02Z 20/03Z 20/04Z 20/05Z 20/06Z 20/07Z 20/08Z 20/09Z
VIS10 10 10 10 10 10 10 10 10 10 10 10 10
CIG300 300 -- -- -- -- -- -- -- -- 300 250 250
CoverBKNBKNSCTFEWCLRCLRCLRFEWFEWSCTBKNBKNBKN
FltCatVFRVFRVFRVFRVFRVFRVFRVFRVFRVFRVFRVFRVFR
WX--------------------------
WDir0000016016001401902002100
WSpd4 0 0 0 0 3 3 0 4 4 7 4 0
WGst-- -- -- -- -- -- -- -- -- -- -- -- --
Raw hourly METARs
KDFW 192053Z VRB04KT 10SM BKN300 16/M03 A3025 RMK AO2 SLP241 T01611033 56031 $
KDFW 192153Z 00000KT 10SM BKN300 17/M03 A3024 RMK AO2 SLP238 T01671033 $
KDFW 192253Z 00000KT 10SM SCT300 16/M04 A3023 RMK AO2 SLP233 T01611039 $
KDFW 192353Z 00000KT 10SM FEW300 13/M03 A3022 RMK AO2 SLP231 T01281033 10172 20128 58010 $
KDFW 200053Z 00000KT 10SM CLR 12/M03 A3022 RMK AO2 SLP232 T01221028 $
KDFW 200153Z 16003KT 10SM CLR 11/M02 A3022 RMK AO2 SLP231 T01111017 $
KDFW 200253Z 16003KT 10SM CLR 10/M01 A3022 RMK AO2 SLP232 T01001011 53001 $
KDFW 200353Z COR 00000KT 10SM FEW300 09/00 A3022 RMK AO2 SLP231 T00890000 $
KDFW 200453Z 14004KT 10SM FEW300 09/01 A3021 RMK AO2 SLP228 T00890006 $
KDFW 200553Z 19004KT 10SM SCT300 07/01 A3020 RMK AO2 SLP225 T00720011 10139 20072 401720033 58006 $
KDFW 200653Z 20007KT 10SM BKN300 06/01 A3020 RMK AO2 SLP224 T00560011 $
KDFW 200753Z 21004KT 10SM BKN250 06/01 A3018 RMK AO2 SLP219 T00610011 $
KDFW 200853Z 00000KT 10SM BKN250 07/00 A3017 RMK AO2 SLP214 T00670000 58011 $